Main page
METAR-TAF:

METAR-TAF

Airports :

Kansas City International Airport

Kansas City, Missouri, United States

latitude: 39-17-50N, longitude: 094-43-50W, elevation: 312 m

Current weather observation

The report was made 45 minutes ago, at 02:53 UTC
Wind 8 kt from the South
Temperature 26°C
Humidity 79%
Pressure 1009 hPa
Visibility: 16.1 km
Clear sky

METAR: KMCI 270253Z 19008KT 10SM CLR 26/22 A2980 RMK AO2 SLP078 T02610217 53013

Time: 22:38 (03:38 UTC)

Forecast

The report was made 3 hours and 36 minutes ago, at 00:02 UTC
Forecast valid from 27 at 00 UTC to 27 at 24 UTC
Wind 4 kt from the South/Southwest
Visibility: 10 km
Few clouds at a height of 8000 ft
Broken clouds at a height of 13000 ft
From 27 at 0200 UTC
Wind 5 kt from variable directions
Visibility: 10 km
Few clouds at a height of 25000 ft

TAF: KMCI 270002Z 2700/2724 21004KT P6SM FEW080 BKN130 FM270200 VRB05KT P6SM FEW250

Weather observations and forecasts of more than 4000 airports (METAR and TAF reports).

The available stations are represented by yellow and red dots on the map.

Hover mouse over dot to see the name of the station.

Then click to see weather observations and forecasts.

To change the map : click on the green buttons with a black cross to zoom in, on the green button with a dash to zoom out, or on the green arrows for adjacent maps.


METAR-TAF: